createdAt,value
2022-12-28T00:01:14.921Z,99273.31
2022-12-28T00:03:42.190Z,99280.22
2022-12-28T00:06:09.325Z,99278.50
2022-12-28T00:08:36.526Z,99281.16
2022-12-28T00:11:07.517Z,99286.78
2022-12-28T00:13:37.211Z,99281.09
2022-12-28T00:16:09.397Z,99279.28
2022-12-28T00:18:37.221Z,99278.16
2022-12-28T00:21:05.026Z,99282.75
2022-12-28T00:23:32.056Z,99282.09
2022-12-28T00:26:13.119Z,99289.53
2022-12-28T00:28:40.774Z,99290.22
2022-12-28T00:31:07.576Z,99287.56
2022-12-28T00:33:34.195Z,99291.50
2022-12-28T00:36:02.415Z,99290.16
2022-12-28T00:38:31.644Z,99297.91
2022-12-28T00:40:59.166Z,99293.03
2022-12-28T00:43:26.635Z,99307.41
2022-12-28T00:45:53.200Z,99315.03
2022-12-28T00:48:19.850Z,99312.31
2022-12-28T00:50:46.505Z,99316.19
2022-12-28T00:53:13.647Z,99312.81
2022-12-28T00:55:42.533Z,99306.22
2022-12-28T00:58:09.963Z,99320.25
2022-12-28T01:00:37.687Z,99302.00
2022-12-28T01:03:04.452Z,99301.50
2022-12-28T01:05:31.174Z,99304.03
2022-12-28T01:07:57.747Z,99309.63
2022-12-28T01:10:24.475Z,99298.97
2022-12-28T01:12:51.031Z,99305.03
2022-12-28T01:15:17.676Z,99296.06
2022-12-28T01:17:44.329Z,99306.34
2022-12-28T01:20:11.652Z,99306.28
2022-12-28T01:22:38.244Z,99307.91
2022-12-28T01:25:05.241Z,99304.81
2022-12-28T01:27:32.459Z,99301.28
2022-12-28T01:29:59.041Z,99302.78
2022-12-28T01:32:25.716Z,99304.97
2022-12-28T01:34:52.330Z,99308.53
2022-12-28T01:37:18.987Z,99316.28
2022-12-28T01:39:45.563Z,99317.94
2022-12-28T01:42:20.059Z,99319.31
2022-12-28T01:44:49.256Z,99315.19
2022-12-28T01:47:23.349Z,99304.16
2022-12-28T01:49:59.871Z,99319.13
2022-12-28T01:52:32.107Z,99324.84
2022-12-28T01:55:01.625Z,99313.03
2022-12-28T01:57:31.723Z,99327.22
2022-12-28T02:00:04.561Z,99320.66
2022-12-28T02:02:32.035Z,99338.88
2022-12-28T02:05:00.195Z,99327.03
2022-12-28T02:07:40.878Z,99314.94
2022-12-28T02:10:44.327Z,99318.03
2022-12-28T02:12:56.943Z,99318.16
2022-12-28T02:15:23.631Z,99322.03
2022-12-28T02:17:50.661Z,99342.38
2022-12-28T02:20:18.085Z,99336.50
2022-12-28T02:22:53.976Z,99339.41
2022-12-28T02:25:53.175Z,99337.69
2022-12-28T02:28:39.694Z,99348.63
2022-12-28T02:31:18.062Z,99345.41
2022-12-28T02:34:19.627Z,99337.50
2022-12-28T02:37:01.765Z,99339.13
2022-12-28T02:39:37.474Z,99335.41
2022-12-28T02:42:06.638Z,99340.00
2022-12-28T02:44:55.898Z,99327.75
2022-12-28T02:47:41.728Z,99341.53
2022-12-28T02:50:13.124Z,99339.44
2022-12-28T02:53:18.090Z,99341.53
2022-12-28T02:56:08.527Z,99341.41
2022-12-28T02:58:37.749Z,99344.72
2022-12-28T03:01:29.067Z,99345.22
2022-12-28T03:04:17.461Z,99341.66
2022-12-28T03:07:22.992Z,99335.03
2022-12-28T03:10:01.077Z,99350.16
2022-12-28T03:12:36.568Z,99352.06
2022-12-28T03:15:11.944Z,99353.09
2022-12-28T03:18:01.928Z,99350.00
2022-12-28T03:20:50.203Z,99355.41
2022-12-28T03:23:38.016Z,99349.59
2022-12-28T03:26:28.360Z,99353.13
2022-12-28T03:29:15.352Z,99362.31
2022-12-28T03:31:42.435Z,99374.41
2022-12-28T03:34:09.390Z,99376.00
2022-12-28T03:36:55.010Z,99379.19
2022-12-28T03:39:41.963Z,99382.69
2022-12-28T03:42:35.255Z,99371.09
2022-12-28T03:45:46.715Z,99384.41
2022-12-28T03:48:15.446Z,99384.09
2022-12-28T03:50:45.496Z,99383.53
2022-12-28T03:53:12.153Z,99384.09
2022-12-28T03:55:39.883Z,99380.84
2022-12-28T03:58:07.026Z,99377.75
2022-12-28T04:00:33.820Z,99370.13
2022-12-28T04:03:00.474Z,99373.66
2022-12-28T04:05:27.119Z,99362.41
2022-12-28T04:07:55.702Z,99367.34
2022-12-28T04:10:22.282Z,99359.94
2022-12-28T04:12:49.177Z,99362.88
2022-12-28T04:15:15.825Z,99347.19
2022-12-28T04:17:42.391Z,99358.72
2022-12-28T04:20:09.571Z,99356.19
2022-12-28T04:22:36.125Z,99354.94
2022-12-28T04:25:02.926Z,99353.75
2022-12-28T04:27:29.544Z,99368.63
2022-12-28T04:29:56.129Z,99369.31
2022-12-28T04:32:22.768Z,99364.94
2022-12-28T04:34:49.359Z,99365.09
2022-12-28T04:37:15.989Z,99365.22
2022-12-28T04:39:55.420Z,99365.31
2022-12-28T04:42:25.268Z,99365.94
2022-12-28T04:44:51.943Z,99370.47
2022-12-28T04:47:18.734Z,99373.63
2022-12-28T04:49:45.314Z,99376.59
2022-12-28T04:52:11.960Z,99370.22
2022-12-28T04:54:38.623Z,99375.88
2022-12-28T04:57:05.195Z,99370.25
2022-12-28T04:59:31.793Z,99380.59
2022-12-28T05:01:58.485Z,99376.50
2022-12-28T05:04:25.169Z,99383.28
2022-12-28T05:06:51.803Z,99385.38
2022-12-28T05:09:19.552Z,99403.44
2022-12-28T05:11:46.240Z,99403.25
2022-12-28T05:14:12.853Z,99400.44
2022-12-28T05:16:39.519Z,99408.44
2022-12-28T05:19:06.187Z,99413.13
2022-12-28T05:21:32.877Z,99410.22
2022-12-28T05:23:59.998Z,99411.53
2022-12-28T05:26:29.551Z,99403.34
2022-12-28T05:28:58.639Z,99414.13
2022-12-28T05:31:25.698Z,99412.41
2022-12-28T05:33:53.097Z,99404.63
2022-12-28T05:36:23.295Z,99425.88
2022-12-28T05:38:50.875Z,99430.09
2022-12-28T05:41:20.706Z,99425.56
2022-12-28T05:43:47.800Z,99424.88
2022-12-28T05:46:20.076Z,99421.41
2022-12-28T05:48:47.722Z,99425.50
2022-12-28T05:51:19.255Z,99443.47
2022-12-28T05:53:46.440Z,99436.09
2022-12-28T05:56:17.464Z,99440.66
2022-12-28T05:58:45.895Z,99445.44
2022-12-28T06:01:16.446Z,99459.34
2022-12-28T06:03:43.832Z,99463.97
2022-12-28T06:06:20.444Z,99468.66
2022-12-28T06:08:49.607Z,99472.47
2022-12-28T06:11:19.556Z,99482.97
2022-12-28T06:13:46.825Z,99482.56
2022-12-28T06:16:19.660Z,99482.09
2022-12-28T06:18:46.868Z,99491.03
2022-12-28T06:21:16.352Z,99506.03
2022-12-28T06:23:43.813Z,99506.91
2022-12-28T06:26:13.184Z,99514.50
2022-12-28T06:28:40.947Z,99512.84
2022-12-28T06:31:29.077Z,99517.63
2022-12-28T06:33:58.334Z,99520.19
2022-12-28T06:36:27.819Z,99532.38
2022-12-28T06:38:56.752Z,99528.66
2022-12-28T06:41:24.097Z,99534.66
2022-12-28T06:43:51.335Z,99538.28
2022-12-28T06:46:19.640Z,99540.44
2022-12-28T06:48:47.009Z,99547.09
2022-12-28T06:51:23.364Z,99553.03
2022-12-28T06:53:51.758Z,99543.41
2022-12-28T06:56:25.589Z,99534.34
2022-12-28T06:58:58.388Z,99535.34
2022-12-28T07:01:40.956Z,99538.59
2022-12-28T07:04:09.362Z,99546.25
2022-12-28T07:06:39.252Z,99551.63
2022-12-28T07:09:08.690Z,99555.03
2022-12-28T07:11:36.208Z,99558.72
2022-12-28T07:14:02.855Z,99557.69
2022-12-28T07:19:00.299Z,99569.31
2022-12-28T07:21:30.035Z,99568.06
2022-12-28T07:23:57.667Z,99571.84
2022-12-28T07:26:27.384Z,99575.81
2022-12-28T07:28:56.499Z,99578.53
2022-12-28T07:31:28.904Z,99572.16
2022-12-28T07:33:57.584Z,99567.75
2022-12-28T07:36:25.552Z,99572.28
2022-12-28T07:38:52.546Z,99588.44
2022-12-28T07:41:22.116Z,99589.00
2022-12-28T07:43:50.085Z,99595.63
2022-12-28T07:46:20.160Z,99611.25
2022-12-28T07:48:47.414Z,99613.34
2022-12-28T07:51:15.632Z,99613.94
2022-12-28T07:53:43.977Z,99617.06
2022-12-28T07:56:11.719Z,99619.34
2022-12-28T07:58:38.899Z,99614.81
2022-12-28T08:01:11.516Z,99624.00
2022-12-28T08:03:40.618Z,99630.22
2022-12-28T08:06:13.538Z,99648.78
2022-12-28T08:08:43.029Z,99649.09
2022-12-28T08:11:15.380Z,99639.44
2022-12-28T08:13:44.347Z,99657.44
2022-12-28T08:16:13.552Z,99649.50
2022-12-28T08:18:41.113Z,99655.84
2022-12-28T08:21:11.091Z,99655.56
2022-12-28T08:23:38.018Z,99655.72
2022-12-28T08:26:09.350Z,99652.44
2022-12-28T08:28:36.836Z,99660.38
2022-12-28T08:31:12.387Z,99644.38
2022-12-28T08:33:39.541Z,99657.44
2022-12-28T08:36:07.650Z,99650.34
2022-12-28T08:38:34.291Z,99659.66
2022-12-28T08:41:03.188Z,99662.69
2022-12-28T08:43:31.555Z,99666.38
2022-12-28T08:46:00.331Z,99662.69
2022-12-28T08:48:27.286Z,99659.38
2022-12-28T08:50:54.546Z,99659.25
2022-12-28T08:53:24.378Z,99660.63
2022-12-28T08:55:51.685Z,99674.38
2022-12-28T08:58:18.633Z,99660.31
2022-12-28T09:00:45.252Z,99665.56
2022-12-28T09:03:11.869Z,99664.31
2022-12-28T09:05:39.962Z,99651.53
2022-12-28T09:08:06.999Z,99663.59
2022-12-28T09:10:33.622Z,99659.38
2022-12-28T09:13:00.378Z,99642.53
2022-12-28T09:15:27.151Z,99650.03
2022-12-28T09:17:53.799Z,99649.63
2022-12-28T09:20:20.470Z,99648.22
2022-12-28T09:22:47.105Z,99650.34
2022-12-28T09:25:13.714Z,99650.50
2022-12-28T09:27:40.251Z,99657.13
2022-12-28T09:30:07.863Z,99654.69
2022-12-28T09:32:34.491Z,99650.25
2022-12-28T09:35:01.120Z,99642.94
2022-12-28T09:37:27.677Z,99650.47
2022-12-28T09:39:59.469Z,99649.50
2022-12-28T09:42:30.450Z,99660.59
2022-12-28T09:45:04.735Z,99656.63
2022-12-28T09:47:31.374Z,99656.94
2022-12-28T09:50:25.167Z,99647.31
2022-12-28T09:53:06.925Z,99644.88
2022-12-28T09:55:38.597Z,99642.34
2022-12-28T09:58:11.050Z,99640.25
2022-12-28T10:00:45.851Z,99642.25
2022-12-28T10:03:32.157Z,99637.66
2022-12-28T10:05:59.694Z,99620.66
2022-12-28T10:08:27.853Z,99618.41
2022-12-28T10:10:58.506Z,99616.16
2022-12-28T10:16:20.129Z,99621.69
2022-12-28T10:18:48.495Z,99619.88
2022-12-28T10:21:18.666Z,99628.66
2022-12-28T10:24:29.288Z,99621.28
2022-12-28T10:26:38.490Z,99585.59
2022-12-28T10:29:06.116Z,99617.31
2022-12-28T10:31:40.576Z,99620.13
2022-12-28T10:34:22.653Z,99598.03
2022-12-28T10:36:50.543Z,99610.78
2022-12-28T10:39:25.313Z,99611.09
2022-12-28T10:41:53.175Z,99601.47
2022-12-28T10:44:41.589Z,99613.38
2022-12-28T10:47:23.212Z,99613.94
2022-12-28T10:52:39.356Z,99605.13
2022-12-28T10:55:27.874Z,99599.72
2022-12-28T11:00:41.764Z,99610.88
2022-12-28T11:03:23.869Z,99599.09
2022-12-28T11:05:57.213Z,99612.44
2022-12-28T11:08:24.221Z,99609.47
2022-12-28T11:10:58.044Z,99604.09
2022-12-28T11:13:24.731Z,99604.28
2022-12-28T11:15:51.387Z,99597.63
2022-12-28T11:18:19.955Z,99600.50
2022-12-28T11:20:52.469Z,99589.16
2022-12-28T11:23:25.112Z,99598.34
2022-12-28T11:25:52.078Z,99600.88
2022-12-28T11:28:21.873Z,99601.75
2022-12-28T11:30:51.006Z,99603.59
2022-12-28T11:33:23.743Z,99591.28
2022-12-28T11:35:59.070Z,99594.09
2022-12-28T11:38:41.749Z,99596.94
2022-12-28T11:41:26.343Z,99585.03
2022-12-28T11:43:59.156Z,99589.44
2022-12-28T11:46:25.733Z,99589.44
2022-12-28T11:48:55.239Z,99589.56
2022-12-28T11:51:26.998Z,99594.38
2022-12-28T11:53:55.446Z,99586.03
2022-12-28T11:56:23.967Z,99590.69
2022-12-28T11:58:59.707Z,99586.88
2022-12-28T12:01:29.579Z,99595.94
2022-12-28T12:03:59.116Z,99597.94
2022-12-28T12:06:44.083Z,99593.53
2022-12-28T12:09:39.646Z,99595.25
2022-12-28T12:12:18.010Z,99598.63
2022-12-28T12:15:01.974Z,99593.97
2022-12-28T12:17:49.913Z,99589.84
2022-12-28T12:20:50.556Z,99585.03
2022-12-28T12:23:29.459Z,99582.19
2022-12-28T12:25:59.886Z,99580.66
2022-12-28T12:28:47.312Z,99581.34
2022-12-28T12:31:23.253Z,99575.41
2022-12-28T12:33:52.929Z,99579.38
2022-12-28T12:36:37.588Z,99577.97
2022-12-28T12:39:26.070Z,99574.72
2022-12-28T12:42:16.806Z,99576.81
2022-12-28T12:44:57.721Z,99579.78
2022-12-28T12:47:45.887Z,99576.56
2022-12-28T12:50:30.448Z,99573.16
2022-12-28T12:53:19.162Z,99578.53
2022-12-28T12:56:30.273Z,99571.03
2022-12-28T12:58:59.856Z,99568.34
2022-12-28T13:01:44.393Z,99558.97
2022-12-28T13:04:20.762Z,99550.78
2022-12-28T13:06:49.346Z,99560.66
2022-12-28T13:09:18.247Z,99568.88
2022-12-28T13:11:46.147Z,99556.16
2022-12-28T13:14:21.308Z,99554.16
2022-12-28T13:16:51.130Z,99560.78
2022-12-28T13:19:27.139Z,99564.31
2022-12-28T13:21:54.760Z,99547.59
2022-12-28T13:24:21.321Z,99550.84
2022-12-28T13:26:48.240Z,99554.38
2022-12-28T13:29:19.681Z,99548.44
2022-12-28T13:31:49.889Z,99542.88
2022-12-28T13:34:29.676Z,99545.56
2022-12-28T13:36:58.579Z,99553.47
2022-12-28T13:39:40.039Z,99551.25
2022-12-28T13:42:28.253Z,99551.63
2022-12-28T13:44:59.183Z,99555.78
2022-12-28T13:47:25.743Z,99549.56
2022-12-28T13:50:04.597Z,99553.28
2022-12-28T13:52:39.968Z,99554.56
2022-12-28T13:55:34.753Z,99551.34
2022-12-28T13:58:05.752Z,99547.38
2022-12-28T14:00:34.014Z,99538.44
2022-12-28T14:03:00.726Z,99536.03
2022-12-28T14:05:31.113Z,99532.38
2022-12-28T14:07:59.332Z,99537.72
2022-12-28T14:10:27.702Z,99540.84
2022-12-28T14:12:56.253Z,99550.50
2022-12-28T14:15:23.964Z,99548.19
2022-12-28T14:17:52.168Z,99544.78
2022-12-28T14:20:19.129Z,99542.50
2022-12-28T14:22:47.023Z,99545.59
2022-12-28T14:25:19.540Z,99547.19
2022-12-28T14:27:57.008Z,99548.56
2022-12-28T14:30:41.253Z,99546.16
2022-12-28T14:33:24.903Z,99552.53
2022-12-28T14:35:55.232Z,99553.66
2022-12-28T14:38:25.503Z,99558.75
2022-12-28T14:40:57.860Z,99563.09
2022-12-28T14:43:36.187Z,99551.22
2022-12-28T14:46:18.501Z,99565.09
2022-12-28T14:48:45.637Z,99556.59
2022-12-28T14:51:14.979Z,99559.84
2022-12-28T14:53:42.240Z,99559.41
2022-12-28T14:56:13.721Z,99560.81
2022-12-28T14:58:52.185Z,99553.41
2022-12-28T15:01:21.380Z,99561.28
2022-12-28T15:03:55.716Z,99547.22
2022-12-28T15:06:26.645Z,99546.06
2022-12-28T15:08:54.774Z,99548.13
2022-12-28T15:11:23.735Z,99548.81
2022-12-28T15:13:50.616Z,99556.44
2022-12-28T15:16:19.600Z,99558.84
2022-12-28T15:18:46.581Z,99557.41
2022-12-28T15:21:15.180Z,99559.81
2022-12-28T15:23:41.787Z,99566.63
2022-12-28T15:26:12.738Z,99561.56
2022-12-28T15:28:39.626Z,99567.09
2022-12-28T15:31:07.613Z,99575.59
2022-12-28T15:33:35.360Z,99561.63
2022-12-28T15:36:07.112Z,99557.91
2022-12-28T15:38:36.112Z,99566.28
2022-12-28T15:41:02.827Z,99567.97
2022-12-28T15:43:29.587Z,99567.97
2022-12-28T15:45:57.959Z,99574.78
2022-12-28T15:48:24.738Z,99572.09
2022-12-28T15:50:51.566Z,99571.09
2022-12-28T15:53:18.232Z,99560.66
2022-12-28T15:55:44.936Z,99573.91
2022-12-28T15:58:11.522Z,99568.88
2022-12-28T16:00:41.506Z,99573.91
2022-12-28T16:03:10.952Z,99570.53
2022-12-28T16:05:37.566Z,99557.97
2022-12-28T16:08:04.310Z,99562.59
2022-12-28T16:10:30.925Z,99571.66
2022-12-28T16:12:57.569Z,99571.66
2022-12-28T16:15:24.260Z,99568.97
2022-12-28T16:17:57.333Z,99562.88
2022-12-28T16:20:24.357Z,99564.84
2022-12-28T16:22:51.211Z,99565.09
2022-12-28T16:25:17.885Z,99561.72
2022-12-28T16:27:44.523Z,99559.03
2022-12-28T16:30:11.757Z,99558.28
2022-12-28T16:32:38.358Z,99556.84
2022-12-28T16:35:05.376Z,99561.44
2022-12-28T16:37:31.949Z,99566.22
2022-12-28T16:39:58.550Z,99567.94
2022-12-28T16:42:25.191Z,99559.63
2022-12-28T16:44:51.934Z,99573.50
2022-12-28T16:47:18.498Z,99577.16
2022-12-28T16:49:45.107Z,99579.84
2022-12-28T16:52:11.675Z,99577.44
2022-12-28T16:54:38.308Z,99581.94
2022-12-28T16:57:04.905Z,99560.56
2022-12-28T16:59:31.542Z,99571.69
2022-12-28T17:01:59.373Z,99565.66
2022-12-28T17:04:26.278Z,99573.44
2022-12-28T17:06:53.333Z,99583.13
2022-12-28T17:09:20.833Z,99592.22
2022-12-28T17:11:48.532Z,99597.91
2022-12-28T17:14:29.344Z,99603.75
2022-12-28T17:17:02.102Z,99591.16
2022-12-28T17:19:28.808Z,99586.81
2022-12-28T17:21:55.508Z,99573.91
2022-12-28T17:24:22.295Z,99562.19
2022-12-28T17:26:48.942Z,99586.31
2022-12-28T17:29:15.546Z,99581.72
2022-12-28T17:31:43.845Z,99589.47
2022-12-28T17:34:11.230Z,99581.50
2022-12-28T17:36:37.849Z,99579.03
2022-12-28T17:39:04.716Z,99569.31
2022-12-28T17:41:31.665Z,99586.69
2022-12-28T17:44:00.188Z,99588.19
2022-12-28T17:46:29.774Z,99586.09
2022-12-28T17:48:57.943Z,99590.75
2022-12-28T17:51:25.644Z,99590.28
2022-12-28T17:53:54.331Z,99578.00
2022-12-28T17:56:21.162Z,99605.25
2022-12-28T17:58:49.498Z,99603.78
2022-12-28T18:01:16.290Z,99598.81
2022-12-28T18:03:43.146Z,99590.06
2022-12-28T18:06:09.920Z,99574.94
2022-12-28T18:08:36.523Z,99569.59
2022-12-28T18:11:03.491Z,99574.47
2022-12-28T18:13:30.181Z,99580.78
2022-12-28T18:15:57.244Z,99578.38
2022-12-28T18:18:23.809Z,99576.78
2022-12-28T18:21:08.194Z,99583.47
2022-12-28T18:23:35.390Z,99584.94
2022-12-28T18:26:08.360Z,99590.75
2022-12-28T18:28:35.864Z,99594.44
2022-12-28T18:31:04.191Z,99594.03
2022-12-28T18:33:32.174Z,99595.75
2022-12-28T18:36:01.705Z,99587.38
2022-12-28T18:38:28.292Z,99589.53
2022-12-28T18:40:56.812Z,99576.91
2022-12-28T18:43:24.174Z,99570.94
2022-12-28T18:45:56.604Z,99602.56
2022-12-28T18:48:25.008Z,99600.03
2022-12-28T18:50:56.470Z,99601.25
2022-12-28T18:53:24.180Z,99596.63
2022-12-28T18:56:04.176Z,99606.13
2022-12-28T18:58:33.560Z,99595.78
2022-12-28T19:01:32.850Z,99605.91
2022-12-28T19:04:00.940Z,99611.53
2022-12-28T19:06:27.949Z,99612.97
2022-12-28T19:08:59.748Z,99605.31
2022-12-28T19:11:27.036Z,99613.19
2022-12-28T19:13:53.610Z,99616.88
2022-12-28T19:16:27.006Z,99610.28
2022-12-28T19:18:57.115Z,99619.31
2022-12-28T19:21:29.520Z,99618.09
2022-12-28T19:23:58.520Z,99612.50
2022-12-28T19:26:25.590Z,99619.56
2022-12-28T19:28:52.858Z,99621.50
2022-12-28T19:31:19.593Z,99626.28
2022-12-28T19:33:46.654Z,99600.09
2022-12-28T19:36:13.469Z,99608.72
2022-12-28T19:38:40.166Z,99621.75
2022-12-28T19:41:09.219Z,99623.72
2022-12-28T19:43:36.737Z,99620.28
2022-12-28T19:46:11.727Z,99621.16
2022-12-28T19:48:38.761Z,99618.59
2022-12-28T19:51:05.578Z,99631.75
2022-12-28T19:53:32.215Z,99623.97
2022-12-28T19:56:12.131Z,99624.66
2022-12-28T19:58:39.484Z,99619.47
2022-12-28T20:01:15.108Z,99620.28
2022-12-28T20:03:42.826Z,99614.69
2022-12-28T20:06:14.899Z,99617.88
2022-12-28T20:08:45.918Z,99607.97
2022-12-28T20:11:12.616Z,99614.94
2022-12-28T20:13:39.233Z,99614.31
2022-12-28T20:16:06.436Z,99618.31
2022-12-28T20:18:33.201Z,99617.84
2022-12-28T20:21:21.396Z,99606.38
2022-12-28T20:23:51.623Z,99620.53
2022-12-28T20:26:19.989Z,99617.34
2022-12-28T20:28:49.005Z,99600.53
2022-12-28T20:31:15.824Z,99608.31
2022-12-28T20:33:43.496Z,99604.69
2022-12-28T20:36:13.370Z,99602.03
2022-12-28T20:38:40.279Z,99607.38
2022-12-28T20:41:31.318Z,99609.78
2022-12-28T20:43:59.212Z,99608.56
2022-12-28T20:46:25.920Z,99610.28
2022-12-28T20:48:52.589Z,99606.84
2022-12-28T20:51:19.160Z,99609.16
2022-12-28T20:53:45.738Z,99608.28
2022-12-28T20:56:12.433Z,99611.47
2022-12-28T20:58:39.490Z,99613.50
2022-12-28T21:01:07.947Z,99620.31
2022-12-28T21:03:34.681Z,99615.09
2022-12-28T21:06:01.564Z,99601.94
2022-12-28T21:08:30.882Z,99606.91
2022-12-28T21:10:58.218Z,99606.81
2022-12-28T21:13:24.871Z,99616.78
2022-12-28T21:15:51.621Z,99607.50
2022-12-28T21:18:19.208Z,99595.72
2022-12-28T21:20:57.243Z,99606.69
2022-12-28T21:23:23.825Z,99606.69
2022-12-28T21:25:50.452Z,99602.19
2022-12-28T21:28:17.173Z,99603.53
2022-12-28T21:30:43.786Z,99602.66
2022-12-28T21:33:10.440Z,99598.81
2022-12-28T21:35:37.026Z,99597.34
2022-12-28T21:38:05.168Z,99588.81
2022-12-28T21:40:31.846Z,99588.22
2022-12-28T21:42:58.785Z,99585.66
2022-12-28T21:45:25.420Z,99595.16
2022-12-28T21:47:52.083Z,99591.25
2022-12-28T21:50:18.715Z,99592.38
2022-12-28T21:52:45.319Z,99596.72
2022-12-28T21:55:30.437Z,99594.44
2022-12-28T21:57:59.619Z,99592.38
2022-12-28T22:00:45.215Z,99589.09
2022-12-28T22:03:30.743Z,99589.81
2022-12-28T22:06:06.167Z,99589.56
2022-12-28T22:08:52.228Z,99585.09
2022-12-28T22:11:37.934Z,99593.00
2022-12-28T22:14:06.456Z,99597.38
2022-12-28T22:16:34.759Z,99587.78
2022-12-28T22:19:03.896Z,99578.75
2022-12-28T22:21:31.278Z,99578.63
2022-12-28T22:23:57.895Z,99577.41
2022-12-28T22:26:24.517Z,99572.56
2022-12-28T22:28:51.128Z,99582.28
2022-12-28T22:31:17.799Z,99582.66
2022-12-28T22:33:44.493Z,99571.44
2022-12-28T22:36:13.569Z,99573.75
2022-12-28T22:38:40.481Z,99566.44
2022-12-28T22:41:07.884Z,99573.53
2022-12-28T22:43:34.486Z,99572.41
2022-12-28T22:46:06.009Z,99561.84
2022-12-28T22:48:33.215Z,99563.06
2022-12-28T22:51:08.412Z,99563.28
2022-12-28T22:53:36.665Z,99562.06
2022-12-28T22:56:06.014Z,99556.47
2022-12-28T22:58:33.058Z,99564.03
2022-12-28T23:01:26.200Z,99559.66
2022-12-28T23:03:52.863Z,99561.84
2022-12-28T23:06:20.473Z,99558.41
2022-12-28T23:08:47.363Z,99551.72
2022-12-28T23:11:34.851Z,99533.59
2022-12-28T23:14:22.438Z,99544.31
2022-12-28T23:16:49.568Z,99547.34
2022-12-28T23:19:35.527Z,99541.38
2022-12-28T23:22:22.992Z,99546.00
2022-12-28T23:25:08.354Z,99544.44
2022-12-28T23:27:40.766Z,99540.91
2022-12-28T23:30:13.625Z,99539.19
2022-12-28T23:32:40.714Z,99532.84
2022-12-28T23:35:07.676Z,99537.00
2022-12-28T23:37:34.343Z,99532.47
2022-12-28T23:40:00.960Z,99535.28
2022-12-28T23:42:27.640Z,99525.31
2022-12-28T23:44:54.232Z,99517.75
2022-12-28T23:47:20.860Z,99521.25
2022-12-28T23:49:47.482Z,99513.63
2022-12-28T23:52:14.098Z,99518.56
2022-12-28T23:54:40.965Z,99520.66
2022-12-28T23:57:07.717Z,99517.59
2022-12-28T23:59:34.352Z,99523.56
